sensor_id;sensor_type;location;lat;lon;timestamp;temperature;humidity
27258;DHT22;62045;49.986;8.672;2023-02-15T00:04:59;16.00;51.60
27258;DHT22;62045;49.986;8.672;2023-02-15T00:10:00;16.00;51.70
27258;DHT22;62045;49.986;8.672;2023-02-15T00:15:02;16.00;51.70
27258;DHT22;62045;49.986;8.672;2023-02-15T00:20:03;15.90;51.70
27258;DHT22;62045;49.986;8.672;2023-02-15T00:25:04;15.80;51.90
27258;DHT22;62045;49.986;8.672;2023-02-15T00:30:07;15.70;52.00
27258;DHT22;62045;49.986;8.672;2023-02-15T00:35:08;15.70;52.10
27258;DHT22;62045;49.986;8.672;2023-02-15T00:40:09;15.70;52.20
27258;DHT22;62045;49.986;8.672;2023-02-15T00:45:12;15.70;52.20
27258;DHT22;62045;49.986;8.672;2023-02-15T00:50:12;15.80;52.00
27258;DHT22;62045;49.986;8.672;2023-02-15T00:55:13;15.90;51.70
27258;DHT22;62045;49.986;8.672;2023-02-15T01:00:16;16.00;51.60
27258;DHT22;62045;49.986;8.672;2023-02-15T01:05:17;16.00;51.50
27258;DHT22;62045;49.986;8.672;2023-02-15T01:10:18;16.00;51.50
27258;DHT22;62045;49.986;8.672;2023-02-15T01:15:20;15.90;51.60
27258;DHT22;62045;49.986;8.672;2023-02-15T01:20:24;15.80;51.70
27258;DHT22;62045;49.986;8.672;2023-02-15T01:25:25;15.70;51.80
27258;DHT22;62045;49.986;8.672;2023-02-15T01:30:27;15.60;51.90
27258;DHT22;62045;49.986;8.672;2023-02-15T01:35:28;15.60;52.10
27258;DHT22;62045;49.986;8.672;2023-02-15T01:40:29;15.60;52.20
27258;DHT22;62045;49.986;8.672;2023-02-15T01:45:32;15.70;52.10
27258;DHT22;62045;49.986;8.672;2023-02-15T01:50:34;15.80;51.80
27258;DHT22;62045;49.986;8.672;2023-02-15T01:55:37;15.90;51.60
27258;DHT22;62045;49.986;8.672;2023-02-15T02:00:41;15.90;51.50
27258;DHT22;62045;49.986;8.672;2023-02-15T02:05:43;15.90;51.40
27258;DHT22;62045;49.986;8.672;2023-02-15T02:10:46;15.90;51.50
27258;DHT22;62045;49.986;8.672;2023-02-15T02:15:55;15.80;51.60
27258;DHT22;62045;49.986;8.672;2023-02-15T02:38:02;15.60;52.10
27258;DHT22;62045;49.986;8.672;2023-02-15T02:43:10;15.70;51.90
27258;DHT22;62045;49.986;8.672;2023-02-15T02:48:14;15.80;51.70
27258;DHT22;62045;49.986;8.672;2023-02-15T02:53:18;15.80;51.50
27258;DHT22;62045;49.986;8.672;2023-02-15T02:58:21;15.90;51.40
27258;DHT22;62045;49.986;8.672;2023-02-15T03:03:26;15.90;51.40
27258;DHT22;62045;49.986;8.672;2023-02-15T03:08:34;15.80;51.40
27258;DHT22;62045;49.986;8.672;2023-02-15T03:13:37;15.80;51.60
27258;DHT22;62045;49.986;8.672;2023-02-15T03:18:45;15.70;51.70
27258;DHT22;62045;49.986;8.672;2023-02-15T03:23:50;15.60;51.80
27258;DHT22;62045;49.986;8.672;2023-02-15T03:28:55;15.60;52.00
27258;DHT22;62045;49.986;8.672;2023-02-15T03:33:59;15.60;52.00
27258;DHT22;62045;49.986;8.672;2023-02-15T03:39:09;15.70;52.00
27258;DHT22;62045;49.986;8.672;2023-02-15T03:44:13;15.80;51.70
27258;DHT22;62045;49.986;8.672;2023-02-15T03:49:21;15.90;51.50
27258;DHT22;62045;49.986;8.672;2023-02-15T03:54:27;16.00;51.40
27258;DHT22;62045;49.986;8.672;2023-02-15T03:59:28;16.00;51.40
27258;DHT22;62045;49.986;8.672;2023-02-15T04:04:35;16.00;51.40
27258;DHT22;62045;49.986;8.672;2023-02-15T04:09:37;15.90;51.50
27258;DHT22;62045;49.986;8.672;2023-02-15T04:14:38;15.80;51.60
27258;DHT22;62045;49.986;8.672;2023-02-15T04:19:38;15.70;51.80
27258;DHT22;62045;49.986;8.672;2023-02-15T04:24:40;15.60;51.90
27258;DHT22;62045;49.986;8.672;2023-02-15T04:29:41;15.60;52.00
27258;DHT22;62045;49.986;8.672;2023-02-15T04:34:41;15.60;52.00
27258;DHT22;62045;49.986;8.672;2023-02-15T04:39:43;15.70;51.90
27258;DHT22;62045;49.986;8.672;2023-02-15T04:44:45;15.80;51.70
27258;DHT22;62045;49.986;8.672;2023-02-15T04:49:45;15.90;51.50
27258;DHT22;62045;49.986;8.672;2023-02-15T04:54:47;15.90;51.30
27258;DHT22;62045;49.986;8.672;2023-02-15T04:59:48;15.90;51.30
27258;DHT22;62045;49.986;8.672;2023-02-15T05:04:49;15.80;51.40
27258;DHT22;62045;49.986;8.672;2023-02-15T05:09:51;15.80;51.60
27258;DHT22;62045;49.986;8.672;2023-02-15T05:14:51;15.70;51.70
27258;DHT22;62045;49.986;8.672;2023-02-15T05:19:52;15.60;51.80
27258;DHT22;62045;49.986;8.672;2023-02-15T05:24:54;15.60;52.00
27258;DHT22;62045;49.986;8.672;2023-02-15T05:29:55;15.60;51.90
27258;DHT22;62045;49.986;8.672;2023-02-15T05:34:55;15.80;51.70
27258;DHT22;62045;49.986;8.672;2023-02-15T05:39:58;16.00;51.40
27258;DHT22;62045;49.986;8.672;2023-02-15T05:44:58;16.10;51.10
27258;DHT22;62045;49.986;8.672;2023-02-15T05:49:59;16.10;51.10
27258;DHT22;62045;49.986;8.672;2023-02-15T05:55:01;16.10;51.10
27258;DHT22;62045;49.986;8.672;2023-02-15T06:00:03;16.00;51.10
27258;DHT22;62045;49.986;8.672;2023-02-15T06:05:12;15.90;51.20
27258;DHT22;62045;49.986;8.672;2023-02-15T06:10:14;15.80;51.30
27258;DHT22;62045;49.986;8.672;2023-02-15T06:15:15;15.70;51.40
27258;DHT22;62045;49.986;8.672;2023-02-15T06:20:16;15.60;51.60
27258;DHT22;62045;49.986;8.672;2023-02-15T06:25:18;15.70;51.70
27258;DHT22;62045;49.986;8.672;2023-02-15T06:30:19;15.90;51.50
27258;DHT22;62045;49.986;8.672;2023-02-15T06:35:20;16.00;51.10
27258;DHT22;62045;49.986;8.672;2023-02-15T06:40:22;16.10;50.90
27258;DHT22;62045;49.986;8.672;2023-02-15T06:45:23;16.10;50.80
27258;DHT22;62045;49.986;8.672;2023-02-15T06:50:24;16.10;50.90
27258;DHT22;62045;49.986;8.672;2023-02-15T06:55:26;16.00;51.00
27258;DHT22;62045;49.986;8.672;2023-02-15T07:00:27;15.90;51.10
27258;DHT22;62045;49.986;8.672;2023-02-15T07:05:28;15.80;51.20
27258;DHT22;62045;49.986;8.672;2023-02-15T07:10:30;15.80;51.40
27258;DHT22;62045;49.986;8.672;2023-02-15T07:15:31;15.70;51.50
27258;DHT22;62045;49.986;8.672;2023-02-15T07:20:31;15.70;51.50
27258;DHT22;62045;49.986;8.672;2023-02-15T07:25:33;15.80;51.60
27258;DHT22;62045;49.986;8.672;2023-02-15T07:30:34;16.00;51.30
27258;DHT22;62045;49.986;8.672;2023-02-15T07:35:36;16.10;51.10
27258;DHT22;62045;49.986;8.672;2023-02-15T07:40:38;16.20;51.00
27258;DHT22;62045;49.986;8.672;2023-02-15T07:45:39;16.10;50.90
27258;DHT22;62045;49.986;8.672;2023-02-15T07:50:40;16.00;51.00
27258;DHT22;62045;49.986;8.672;2023-02-15T07:55:42;16.00;51.10
27258;DHT22;62045;49.986;8.672;2023-02-15T08:00:43;15.90;51.20
27258;DHT22;62045;49.986;8.672;2023-02-15T08:05:44;15.80;51.40
27258;DHT22;62045;49.986;8.672;2023-02-15T08:10:46;15.70;51.50
27258;DHT22;62045;49.986;8.672;2023-02-15T08:15:48;15.60;51.70
27258;DHT22;62045;49.986;8.672;2023-02-15T08:20:49;15.60;51.80
27258;DHT22;62045;49.986;8.672;2023-02-15T08:25:51;15.70;51.70
27258;DHT22;62045;49.986;8.672;2023-02-15T08:30:52;15.80;51.40
27258;DHT22;62045;49.986;8.672;2023-02-15T08:35:53;16.00;51.10
27258;DHT22;62045;49.986;8.672;2023-02-15T08:40:55;16.10;50.90
27258;DHT22;62045;49.986;8.672;2023-02-15T08:45:56;16.10;50.80
27258;DHT22;62045;49.986;8.672;2023-02-15T08:50:57;16.10;50.90
27258;DHT22;62045;49.986;8.672;2023-02-15T08:55:59;16.00;51.00
27258;DHT22;62045;49.986;8.672;2023-02-15T09:01:00;16.00;51.10
27258;DHT22;62045;49.986;8.672;2023-02-15T09:06:01;15.80;51.30
27258;DHT22;62045;49.986;8.672;2023-02-15T09:11:09;15.80;51.40
27258;DHT22;62045;49.986;8.672;2023-02-15T09:16:10;15.70;51.30
27258;DHT22;62045;49.986;8.672;2023-02-15T09:21:12;15.60;51.30
27258;DHT22;62045;49.986;8.672;2023-02-15T09:26:16;15.60;52.20
27258;DHT22;62045;49.986;8.672;2023-02-15T09:31:19;15.60;51.70
27258;DHT22;62045;49.986;8.672;2023-02-15T09:36:21;15.70;51.40
27258;DHT22;62045;49.986;8.672;2023-02-15T09:47:08;16.10;50.40
27258;DHT22;62045;49.986;8.672;2023-02-15T09:52:29;16.20;50.00
27258;DHT22;62045;49.986;8.672;2023-02-15T09:57:42;16.20;49.90
27258;DHT22;62045;49.986;8.672;2023-02-15T10:02:54;16.20;50.00
27258;DHT22;62045;49.986;8.672;2023-02-15T10:08:12;16.20;50.00
27258;DHT22;62045;49.986;8.672;2023-02-15T10:13:27;16.10;49.40
27258;DHT22;62045;49.986;8.672;2023-02-15T10:18:50;16.00;49.60
27258;DHT22;62045;49.986;8.672;2023-02-15T10:29:52;15.90;50.20
27258;DHT22;62045;49.986;8.672;2023-02-15T10:35:01;15.80;50.40
27258;DHT22;62045;49.986;8.672;2023-02-15T10:40:08;15.80;50.50
27258;DHT22;62045;49.986;8.672;2023-02-15T10:45:18;15.80;50.60
27258;DHT22;62045;49.986;8.672;2023-02-15T10:50:33;16.00;50.60
27258;DHT22;62045;49.986;8.672;2023-02-15T10:55:49;16.00;50.30
27258;DHT22;62045;49.986;8.672;2023-02-15T11:00:57;16.20;50.10
27258;DHT22;62045;49.986;8.672;2023-02-15T11:06:04;16.20;50.00
27258;DHT22;62045;49.986;8.672;2023-02-15T11:11:07;16.20;50.10
27258;DHT22;62045;49.986;8.672;2023-02-15T11:16:12;16.10;50.10
27258;DHT22;62045;49.986;8.672;2023-02-15T11:21:20;16.00;50.30
27258;DHT22;62045;49.986;8.672;2023-02-15T11:26:26;16.00;50.60
27258;DHT22;62045;49.986;8.672;2023-02-15T11:31:41;15.80;50.40
27258;DHT22;62045;49.986;8.672;2023-02-15T11:36:43;15.80;50.40
27258;DHT22;62045;49.986;8.672;2023-02-15T11:41:47;15.80;50.20
27258;DHT22;62045;49.986;8.672;2023-02-15T11:46:50;16.00;49.70
27258;DHT22;62045;49.986;8.672;2023-02-15T11:51:52;16.20;48.90
27258;DHT22;62045;49.986;8.672;2023-02-15T11:56:54;16.40;48.40
27258;DHT22;62045;49.986;8.672;2023-02-15T12:01:57;16.50;47.90
27258;DHT22;62045;49.986;8.672;2023-02-15T12:07:01;16.50;47.70
27258;DHT22;62045;49.986;8.672;2023-02-15T12:12:25;16.50;47.60
27258;DHT22;62045;49.986;8.672;2023-02-15T12:17:29;16.40;47.70
27258;DHT22;62045;49.986;8.672;2023-02-15T12:22:33;16.30;47.70
27258;DHT22;62045;49.986;8.672;2023-02-15T12:27:34;16.20;47.70
27258;DHT22;62045;49.986;8.672;2023-02-15T12:32:48;16.10;47.70
27258;DHT22;62045;49.986;8.672;2023-02-15T12:37:54;16.10;47.60
27258;DHT22;62045;49.986;8.672;2023-02-15T12:42:55;16.30;47.40
27258;DHT22;62045;49.986;8.672;2023-02-15T12:48:16;16.40;47.00
27258;DHT22;62045;49.986;8.672;2023-02-15T12:53:19;16.50;46.60
27258;DHT22;62045;49.986;8.672;2023-02-15T12:58:23;16.60;46.40
27258;DHT22;62045;49.986;8.672;2023-02-15T13:03:25;16.60;46.50
27258;DHT22;62045;49.986;8.672;2023-02-15T13:08:28;16.50;46.70
27258;DHT22;62045;49.986;8.672;2023-02-15T13:13:31;16.40;46.60
27258;DHT22;62045;49.986;8.672;2023-02-15T13:18:36;16.30;46.80
27258;DHT22;62045;49.986;8.672;2023-02-15T13:23:40;16.20;47.00
27258;DHT22;62045;49.986;8.672;2023-02-15T13:28:45;16.10;47.10
27258;DHT22;62045;49.986;8.672;2023-02-15T13:33:50;16.20;46.80
27258;DHT22;62045;49.986;8.672;2023-02-15T13:39:09;16.30;46.50
27258;DHT22;62045;49.986;8.672;2023-02-15T13:44:18;16.50;46.10
27258;DHT22;62045;49.986;8.672;2023-02-15T13:49:38;16.70;45.70
27258;DHT22;62045;49.986;8.672;2023-02-15T13:54:53;16.70;45.50
27258;DHT22;62045;49.986;8.672;2023-02-15T14:00:03;16.70;45.40
27258;DHT22;62045;49.986;8.672;2023-02-15T14:10:57;16.60;45.80
27258;DHT22;62045;49.986;8.672;2023-02-15T14:16:03;16.40;46.00
27258;DHT22;62045;49.986;8.672;2023-02-15T14:21:12;16.30;46.00
27258;DHT22;62045;49.986;8.672;2023-02-15T14:26:19;16.30;46.20
27258;DHT22;62045;49.986;8.672;2023-02-15T14:31:28;16.40;46.00
27258;DHT22;62045;49.986;8.672;2023-02-15T14:36:32;16.50;45.70
27258;DHT22;62045;49.986;8.672;2023-02-15T14:41:37;16.70;45.50
27258;DHT22;62045;49.986;8.672;2023-02-15T14:46:48;16.80;45.40
27258;DHT22;62045;49.986;8.672;2023-02-15T14:52:00;16.70;45.30
27258;DHT22;62045;49.986;8.672;2023-02-15T14:57:22;16.70;45.40
27258;DHT22;62045;49.986;8.672;2023-02-15T15:02:25;16.60;45.60
27258;DHT22;62045;49.986;8.672;2023-02-15T15:07:28;16.50;45.70
27258;DHT22;62045;49.986;8.672;2023-02-15T15:12:38;16.30;45.80
27258;DHT22;62045;49.986;8.672;2023-02-15T15:17:55;16.30;46.00
27258;DHT22;62045;49.986;8.672;2023-02-15T15:28:54;16.50;45.70
27258;DHT22;62045;49.986;8.672;2023-02-15T15:34:21;16.70;45.30
27258;DHT22;62045;49.986;8.672;2023-02-15T15:45:33;16.80;45.10
27258;DHT22;62045;49.986;8.672;2023-02-15T15:50:39;16.70;45.30
27258;DHT22;62045;49.986;8.672;2023-02-15T15:55:41;16.50;45.30
27258;DHT22;62045;49.986;8.672;2023-02-15T16:00:47;16.40;45.50
27258;DHT22;62045;49.986;8.672;2023-02-15T16:05:49;16.30;45.60
27258;DHT22;62045;49.986;8.672;2023-02-15T16:10:50;16.30;45.60
27258;DHT22;62045;49.986;8.672;2023-02-15T16:15:53;16.40;45.60
27258;DHT22;62045;49.986;8.672;2023-02-15T16:20:57;16.60;45.30
27258;DHT22;62045;49.986;8.672;2023-02-15T16:26:05;16.80;45.00
27258;DHT22;62045;49.986;8.672;2023-02-15T16:31:13;16.80;44.80
27258;DHT22;62045;49.986;8.672;2023-02-15T16:36:21;16.80;44.80
27258;DHT22;62045;49.986;8.672;2023-02-15T16:41:24;16.70;44.80
27258;DHT22;62045;49.986;8.672;2023-02-15T16:46:27;16.60;44.90
27258;DHT22;62045;49.986;8.672;2023-02-15T16:51:30;16.50;45.10
27258;DHT22;62045;49.986;8.672;2023-02-15T16:56:31;16.40;45.50
27258;DHT22;62045;49.986;8.672;2023-02-15T17:01:33;16.40;48.10
27258;DHT22;62045;49.986;8.672;2023-02-15T17:06:34;16.50;48.60
27258;DHT22;62045;49.986;8.672;2023-02-15T17:11:37;16.60;48.50
27258;DHT22;62045;49.986;8.672;2023-02-15T17:16:43;16.60;48.20
27258;DHT22;62045;49.986;8.672;2023-02-15T17:21:48;16.60;48.00
27258;DHT22;62045;49.986;8.672;2023-02-15T17:26:53;16.60;48.00
27258;DHT22;62045;49.986;8.672;2023-02-15T17:31:56;16.50;48.00
27258;DHT22;62045;49.986;8.672;2023-02-15T17:36:58;16.40;48.80
27258;DHT22;62045;49.986;8.672;2023-02-15T17:41:59;16.30;48.30
27258;DHT22;62045;49.986;8.672;2023-02-15T17:47:01;16.20;48.40
27258;DHT22;62045;49.986;8.672;2023-02-15T17:52:01;16.10;48.70
27258;DHT22;62045;49.986;8.672;2023-02-15T17:57:04;16.10;48.70
27258;DHT22;62045;49.986;8.672;2023-02-15T18:02:10;16.00;49.00
27258;DHT22;62045;49.986;8.672;2023-02-15T18:07:12;16.00;49.10
27258;DHT22;62045;49.986;8.672;2023-02-15T18:12:18;16.20;48.90
27258;DHT22;62045;49.986;8.672;2023-02-15T18:17:25;16.30;49.20
27258;DHT22;62045;49.986;8.672;2023-02-15T18:22:27;16.40;48.40
27258;DHT22;62045;49.986;8.672;2023-02-15T18:27:29;16.40;48.30
27258;DHT22;62045;49.986;8.672;2023-02-15T18:32:34;16.40;48.50
27258;DHT22;62045;49.986;8.672;2023-02-15T18:37:35;16.30;48.70
27258;DHT22;62045;49.986;8.672;2023-02-15T18:42:36;16.30;48.80
27258;DHT22;62045;49.986;8.672;2023-02-15T18:47:38;16.20;50.20
27258;DHT22;62045;49.986;8.672;2023-02-15T18:52:39;16.10;53.90
27258;DHT22;62045;49.986;8.672;2023-02-15T18:57:40;16.10;54.00
27258;DHT22;62045;49.986;8.672;2023-02-15T19:02:43;16.10;54.80
27258;DHT22;62045;49.986;8.672;2023-02-15T19:07:44;16.10;54.60
27258;DHT22;62045;49.986;8.672;2023-02-15T19:12:45;16.00;54.40
27258;DHT22;62045;49.986;8.672;2023-02-15T19:17:47;15.90;55.00
27258;DHT22;62045;49.986;8.672;2023-02-15T19:22:50;16.00;55.00
27258;DHT22;62045;49.986;8.672;2023-02-15T19:27:52;16.00;54.70
27258;DHT22;62045;49.986;8.672;2023-02-15T19:32:55;16.10;54.20
27258;DHT22;62045;49.986;8.672;2023-02-15T19:37:57;16.20;54.40
27258;DHT22;62045;49.986;8.672;2023-02-15T19:42:59;16.20;53.50
27258;DHT22;62045;49.986;8.672;2023-02-15T19:48:01;16.20;53.40
27258;DHT22;62045;49.986;8.672;2023-02-15T19:53:02;16.20;53.30
27258;DHT22;62045;49.986;8.672;2023-02-15T19:58:08;16.10;53.30
27258;DHT22;62045;49.986;8.672;2023-02-15T20:03:11;16.00;53.30
27258;DHT22;62045;49.986;8.672;2023-02-15T20:08:15;15.90;53.20
27258;DHT22;62045;49.986;8.672;2023-02-15T20:13:18;15.80;53.40
27258;DHT22;62045;49.986;8.672;2023-02-15T20:18:20;15.80;53.40
27258;DHT22;62045;49.986;8.672;2023-02-15T20:23:23;15.80;53.50
27258;DHT22;62045;49.986;8.672;2023-02-15T20:28:26;16.00;54.00
27258;DHT22;62045;49.986;8.672;2023-02-15T20:33:28;16.20;52.80
27258;DHT22;62045;49.986;8.672;2023-02-15T20:38:30;16.30;52.40
27258;DHT22;62045;49.986;8.672;2023-02-15T20:43:32;16.30;52.30
27258;DHT22;62045;49.986;8.672;2023-02-15T20:48:34;16.30;52.20
27258;DHT22;62045;49.986;8.672;2023-02-15T20:53:35;16.30;52.20
27258;DHT22;62045;49.986;8.672;2023-02-15T20:58:35;16.30;52.30
27258;DHT22;62045;49.986;8.672;2023-02-15T21:03:38;16.10;52.40
27258;DHT22;62045;49.986;8.672;2023-02-15T21:08:38;16.00;52.50
27258;DHT22;62045;49.986;8.672;2023-02-15T21:13:46;16.00;52.50
27258;DHT22;62045;49.986;8.672;2023-02-15T21:18:48;15.90;52.70
27258;DHT22;62045;49.986;8.672;2023-02-15T21:23:49;15.80;52.60
27258;DHT22;62045;49.986;8.672;2023-02-15T21:28:50;15.70;52.70
27258;DHT22;62045;49.986;8.672;2023-02-15T21:33:52;15.70;52.80
27258;DHT22;62045;49.986;8.672;2023-02-15T21:38:53;15.60;52.80
27258;DHT22;62045;49.986;8.672;2023-02-15T21:43:54;15.60;52.90
27258;DHT22;62045;49.986;8.672;2023-02-15T21:48:56;15.60;53.10
27258;DHT22;62045;49.986;8.672;2023-02-15T21:53:56;15.50;53.40
27258;DHT22;62045;49.986;8.672;2023-02-15T21:58:57;15.50;53.40
27258;DHT22;62045;49.986;8.672;2023-02-15T22:03:59;15.40;53.40
27258;DHT22;62045;49.986;8.672;2023-02-15T22:09:00;15.40;53.40
27258;DHT22;62045;49.986;8.672;2023-02-15T22:14:00;15.40;53.40
27258;DHT22;62045;49.986;8.672;2023-02-15T22:19:03;15.40;53.40
27258;DHT22;62045;49.986;8.672;2023-02-15T22:24:03;15.40;53.30
27258;DHT22;62045;49.986;8.672;2023-02-15T22:29:04;15.40;53.40
27258;DHT22;62045;49.986;8.672;2023-02-15T22:34:10;15.50;53.50
27258;DHT22;62045;49.986;8.672;2023-02-15T22:39:17;15.50;53.30
27258;DHT22;62045;49.986;8.672;2023-02-15T22:44:21;15.60;53.00
27258;DHT22;62045;49.986;8.672;2023-02-15T22:49:24;15.80;52.70
27258;DHT22;62045;49.986;8.672;2023-02-15T22:54:25;16.00;52.40
27258;DHT22;62045;49.986;8.672;2023-02-15T22:59:27;16.10;52.10
27258;DHT22;62045;49.986;8.672;2023-02-15T23:04:30;16.10;52.60
27258;DHT22;62045;49.986;8.672;2023-02-15T23:09:31;16.10;51.80
27258;DHT22;62045;49.986;8.672;2023-02-15T23:14:33;16.10;51.90
27258;DHT22;62045;49.986;8.672;2023-02-15T23:19:35;16.00;52.00
27258;DHT22;62045;49.986;8.672;2023-02-15T23:24:36;15.90;52.00
27258;DHT22;62045;49.986;8.672;2023-02-15T23:29:37;15.80;52.10
27258;DHT22;62045;49.986;8.672;2023-02-15T23:34:39;15.70;52.20
27258;DHT22;62045;49.986;8.672;2023-02-15T23:39:40;15.70;52.40
27258;DHT22;62045;49.986;8.672;2023-02-15T23:44:42;15.60;52.50
27258;DHT22;62045;49.986;8.672;2023-02-15T23:49:44;15.70;52.40
27258;DHT22;62045;49.986;8.672;2023-02-15T23:54:45;15.80;52.20
27258;DHT22;62045;49.986;8.672;2023-02-15T23:59:45;16.00;52.00
